createdAt,value
2019-02-20T00:01:20.962Z,100980.73
2019-02-20T00:04:08.178Z,100978.77
2019-02-20T00:10:02.565Z,100983.30
2019-02-20T00:12:50.935Z,100984.54
2019-02-20T00:15:37.830Z,100987.02
2019-02-20T00:18:25.156Z,100995.12
2019-02-20T00:21:12.588Z,100998.48
2019-02-20T00:24:01.197Z,101000.68
2019-02-20T00:26:48.962Z,101001.75
2019-02-20T00:35:49.493Z,101008.01
2019-02-20T00:38:36.505Z,101005.03
2019-02-20T00:41:24.028Z,101004.64
2019-02-20T00:44:17.061Z,101006.67
2019-02-20T00:47:05.726Z,101010.41
2019-02-20T00:49:52.773Z,101009.34
2019-02-20T00:56:01.278Z,101014.75
2019-02-20T00:58:48.603Z,101016.81
2019-02-20T01:04:41.646Z,101019.72
2019-02-20T01:07:28.784Z,101017.00
2019-02-20T01:10:16.298Z,101023.82
2019-02-20T01:13:04.040Z,101024.56
2019-02-20T01:15:51.836Z,101020.43
2019-02-20T01:18:39.182Z,101026.31
2019-02-20T01:21:26.582Z,101020.31
2019-02-20T01:24:14.147Z,101016.96
2019-02-20T01:27:02.688Z,101017.58
2019-02-20T01:32:56.268Z,101008.59
2019-02-20T01:35:43.884Z,101008.10
2019-02-20T01:38:31.299Z,101008.10
2019-02-20T01:41:19.530Z,101012.80
2019-02-20T01:44:06.771Z,101011.22
2019-02-20T01:46:54.087Z,101011.01
2019-02-20T01:49:42.738Z,101008.48
2019-02-20T01:52:29.965Z,100997.33
2019-02-20T01:55:17.305Z,101003.45
2019-02-20T01:58:04.554Z,101006.69
2019-02-20T02:00:51.820Z,101005.85
2019-02-20T02:03:39.274Z,101004.61
2019-02-20T02:06:26.565Z,101006.95
2019-02-20T02:09:13.872Z,101006.54
2019-02-20T02:12:01.224Z,100997.10
2019-02-20T02:14:48.323Z,101006.73
2019-02-20T02:17:36.243Z,101013.30
2019-02-20T02:26:37.220Z,101012.30
2019-02-20T02:32:30.287Z,101006.09
2019-02-20T02:35:18.054Z,100999.17
2019-02-20T02:38:12.604Z,101007.56
2019-02-20T02:44:07.328Z,101007.79
2019-02-20T02:46:54.835Z,101004.59
2019-02-20T02:49:42.005Z,101005.31
2019-02-20T02:52:28.959Z,101012.70
2019-02-20T02:58:22.343Z,101017.25
2019-02-20T03:01:09.759Z,101017.43
2019-02-20T03:03:57.711Z,101021.42
2019-02-20T03:12:58.344Z,101021.97
2019-02-20T03:15:45.639Z,101014.17
2019-02-20T03:21:39.130Z,101018.52
2019-02-20T03:30:42.236Z,101030.41
2019-02-20T03:39:41.751Z,101024.94
2019-02-20T03:42:29.079Z,101032.25
2019-02-20T03:45:19.369Z,101035.93
2019-02-20T03:48:08.402Z,101045.23
2019-02-20T03:51:13.668Z,101053.05
2019-02-20T03:54:00.830Z,101038.59
2019-02-20T03:59:55.371Z,101052.34
2019-02-20T04:05:54.642Z,101057.45
2019-02-20T04:08:40.355Z,101059.92
2019-02-20T04:11:27.386Z,101054.56
2019-02-20T04:14:15.233Z,101056.70
2019-02-20T04:17:02.150Z,101052.73
2019-02-20T04:19:49.243Z,101053.97
2019-02-20T04:22:36.770Z,101056.11
2019-02-20T04:25:31.872Z,101059.56
2019-02-20T04:34:40.200Z,101066.05
2019-02-20T04:37:27.988Z,101068.70
2019-02-20T04:40:15.666Z,101066.09
2019-02-20T04:43:06.004Z,101062.12
2019-02-20T04:45:54.801Z,101063.83
2019-02-20T04:48:42.217Z,101063.36
2019-02-20T04:51:29.825Z,101060.33
2019-02-20T04:54:21.573Z,101058.14
2019-02-20T04:57:11.244Z,101054.20
2019-02-20T04:59:58.483Z,101055.94
2019-02-20T05:05:51.814Z,101062.14
2019-02-20T05:08:38.951Z,101065.21
2019-02-20T05:11:28.827Z,101064.30
2019-02-20T05:20:27.955Z,101068.83
2019-02-20T05:23:15.055Z,101062.68
2019-02-20T05:26:02.280Z,101063.93
2019-02-20T05:28:52.160Z,101067.37
2019-02-20T05:34:48.596Z,101063.75
2019-02-20T05:37:35.619Z,101077.70
2019-02-20T05:46:36.629Z,101068.80
2019-02-20T05:52:41.536Z,101081.03
2019-02-20T06:04:50.125Z,101099.38
2019-02-20T06:07:42.870Z,101094.16
2019-02-20T06:10:42.372Z,101102.02
2019-02-20T06:13:32.175Z,101103.76
2019-02-20T06:16:20.909Z,101104.55
2019-02-20T06:19:08.123Z,101108.50
2019-02-20T06:21:55.824Z,101108.05
2019-02-20T06:24:44.330Z,101107.59
2019-02-20T06:27:45.230Z,101113.27
2019-02-20T06:30:32.900Z,101119.33
2019-02-20T06:33:22.405Z,101115.84
2019-02-20T06:36:10.180Z,101124.55
2019-02-20T06:38:57.524Z,101126.30
2019-02-20T06:41:45.036Z,101128.47
2019-02-20T06:50:52.520Z,101140.22
2019-02-20T06:56:50.273Z,101143.66
2019-02-20T06:59:37.672Z,101147.50
2019-02-20T07:02:25.389Z,101145.75
2019-02-20T07:05:34.368Z,101143.53
2019-02-20T07:15:17.368Z,101160.75
2019-02-20T07:18:07.472Z,101162.44
2019-02-20T07:24:21.697Z,101168.78
2019-02-20T07:33:43.678Z,101172.75
2019-02-20T07:36:31.916Z,101174.64
2019-02-20T07:42:27.700Z,101190.27
2019-02-20T07:45:15.734Z,101199.18
2019-02-20T07:48:02.703Z,101203.77
2019-02-20T07:50:51.094Z,101203.31
2019-02-20T07:53:38.128Z,101199.11
2019-02-20T08:02:40.372Z,101213.53
2019-02-20T08:05:27.634Z,101219.16
2019-02-20T08:14:29.915Z,101213.10
2019-02-20T08:20:23.986Z,101223.00
2019-02-20T08:26:17.697Z,101229.40
2019-02-20T08:29:07.665Z,101235.27
2019-02-20T08:41:15.591Z,101243.65
2019-02-20T08:44:03.426Z,101248.22
2019-02-20T08:46:50.855Z,101250.17
2019-02-20T08:52:47.284Z,101260.59
2019-02-20T08:55:35.344Z,101262.89
2019-02-20T08:58:23.036Z,101259.65
2019-02-20T09:01:12.323Z,101258.14
2019-02-20T09:04:00.343Z,101267.20
2019-02-20T09:13:00.886Z,101261.94
2019-02-20T09:18:56.610Z,101258.45
2019-02-20T09:21:44.164Z,101262.28
2019-02-20T09:24:38.946Z,101257.45
2019-02-20T09:27:27.409Z,101259.16
2019-02-20T09:30:14.696Z,101266.06
2019-02-20T09:33:02.250Z,101257.22
2019-02-20T09:35:50.772Z,101261.42
2019-02-20T09:38:38.015Z,101256.33
2019-02-20T09:41:29.195Z,101261.55
2019-02-20T09:44:16.209Z,101268.39
2019-02-20T09:47:18.121Z,101269.19
2019-02-20T09:50:05.842Z,101271.72
2019-02-20T09:52:53.365Z,101277.56
2019-02-20T09:55:50.937Z,101284.75
2019-02-20T10:01:36.211Z,101291.27
2019-02-20T10:07:29.779Z,101304.69
2019-02-20T10:10:16.766Z,101304.13
2019-02-20T10:13:05.108Z,101312.73
2019-02-20T10:25:11.699Z,101310.36
2019-02-20T10:27:59.013Z,101310.27
2019-02-20T10:30:46.666Z,101311.97
2019-02-20T10:33:33.964Z,101311.02
2019-02-20T10:39:27.583Z,101309.36
2019-02-20T10:45:21.547Z,101299.50
2019-02-20T10:51:16.333Z,101317.73
2019-02-20T10:54:04.369Z,101315.59
2019-02-20T10:56:51.917Z,101309.91
2019-02-20T11:02:45.446Z,101304.92
2019-02-20T11:11:45.246Z,101301.08
2019-02-20T11:14:32.416Z,101296.75
2019-02-20T11:17:22.443Z,101298.27
2019-02-20T11:20:10.168Z,101300.03
2019-02-20T11:22:57.247Z,101300.38
2019-02-20T11:41:17.409Z,101300.36
2019-02-20T11:47:24.899Z,101291.39
2019-02-20T11:50:26.646Z,101284.70
2019-02-20T11:53:14.035Z,101285.36
2019-02-20T11:56:01.357Z,101284.75
2019-02-20T11:58:48.511Z,101284.06
2019-02-20T12:01:35.689Z,101291.82
2019-02-20T12:04:23.256Z,101279.12
2019-02-20T12:07:10.518Z,101280.05
2019-02-20T12:09:58.890Z,101281.03
2019-02-20T12:12:47.782Z,101280.39
2019-02-20T12:15:49.889Z,101271.19
2019-02-20T12:21:57.736Z,101272.95
2019-02-20T12:24:45.127Z,101275.75
2019-02-20T12:27:46.849Z,101282.22
2019-02-20T12:30:33.925Z,101272.71
2019-02-20T12:36:30.800Z,101279.59
2019-02-20T12:39:18.503Z,101284.78
2019-02-20T12:42:05.777Z,101285.57
2019-02-20T12:44:53.043Z,101283.12
2019-02-20T12:47:47.959Z,101275.32
2019-02-20T12:53:56.576Z,101289.70
2019-02-20T12:56:44.346Z,101275.98
2019-02-20T12:59:31.118Z,101286.75
2019-02-20T13:05:24.489Z,101277.17
2019-02-20T13:08:11.831Z,101274.71
2019-02-20T13:10:59.471Z,101270.53
2019-02-20T13:13:46.792Z,101269.90
2019-02-20T13:19:56.792Z,101260.44
2019-02-20T13:22:56.967Z,101257.92
2019-02-20T13:25:44.224Z,101263.64
2019-02-20T13:28:45.910Z,101263.45
2019-02-20T13:31:33.282Z,101260.52
2019-02-20T13:34:20.597Z,101261.22
2019-02-20T13:37:07.730Z,101264.64
2019-02-20T13:46:08.156Z,101267.20
2019-02-20T13:48:57.309Z,101274.06
2019-02-20T13:51:42.926Z,101278.52
2019-02-20T13:54:29.976Z,101275.72
2019-02-20T13:57:17.666Z,101274.05
2019-02-20T14:00:04.793Z,101274.84
2019-02-20T14:02:52.071Z,101267.22
2019-02-20T14:05:42.567Z,101265.89
2019-02-20T14:08:30.710Z,101265.00
2019-02-20T14:14:26.462Z,101267.75
2019-02-20T14:17:13.844Z,101271.50
2019-02-20T14:20:01.392Z,101266.09
2019-02-20T14:25:55.346Z,101264.92
2019-02-20T14:28:43.091Z,101266.80
2019-02-20T14:31:30.305Z,101261.55
2019-02-20T14:46:47.872Z,101273.79
2019-02-20T14:49:35.313Z,101281.33
2019-02-20T14:52:22.360Z,101280.21
2019-02-20T14:58:30.302Z,101277.06
2019-02-20T15:01:17.997Z,101282.13
2019-02-20T15:04:05.483Z,101284.69
2019-02-20T15:06:52.899Z,101278.06
2019-02-20T15:09:40.352Z,101286.21
2019-02-20T15:12:27.855Z,101285.63
2019-02-20T15:15:15.170Z,101283.18
2019-02-20T15:18:02.693Z,101291.29
2019-02-20T15:20:51.535Z,101280.67
2019-02-20T15:23:38.669Z,101280.87
2019-02-20T15:29:32.452Z,101285.84
2019-02-20T15:32:34.485Z,101287.64
2019-02-20T15:38:28.084Z,101285.03
2019-02-20T15:41:15.399Z,101283.66
2019-02-20T15:44:02.924Z,101284.42
2019-02-20T15:46:52.798Z,101297.52
2019-02-20T15:53:01.535Z,101292.28
2019-02-20T15:55:48.657Z,101293.48
2019-02-20T15:58:35.743Z,101297.85
2019-02-20T16:01:38.631Z,101304.81
2019-02-20T16:04:26.853Z,101299.09
2019-02-20T16:07:14.462Z,101307.70
2019-02-20T16:13:09.114Z,101313.52
2019-02-20T16:16:10.742Z,101320.10
2019-02-20T16:18:57.968Z,101319.62
2019-02-20T16:21:44.953Z,101328.30
2019-02-20T16:24:32.312Z,101334.39
2019-02-20T16:27:19.251Z,101329.27
2019-02-20T16:30:06.453Z,101329.97
2019-02-20T16:32:53.955Z,101330.73
2019-02-20T16:35:55.887Z,101336.25
2019-02-20T16:38:43.112Z,101337.34
2019-02-20T16:47:45.530Z,101350.72
2019-02-20T16:50:32.633Z,101351.70
2019-02-20T16:53:21.165Z,101351.80
2019-02-20T17:02:20.887Z,101357.65
2019-02-20T17:08:14.382Z,101368.10
2019-02-20T17:14:23.127Z,101367.58
2019-02-20T17:17:10.501Z,101375.42
2019-02-20T17:23:04.407Z,101371.55
2019-02-20T17:25:59.193Z,101370.50
2019-02-20T17:28:46.702Z,101373.48
2019-02-20T17:31:33.837Z,101380.66
2019-02-20T17:34:21.272Z,101385.23
2019-02-20T17:43:28.784Z,101390.56
2019-02-20T17:46:16.396Z,101398.75
2019-02-20T17:49:03.608Z,101397.09
2019-02-20T17:51:50.860Z,101396.91
2019-02-20T17:54:37.758Z,101401.44
2019-02-20T17:57:24.866Z,101401.33
2019-02-20T18:00:12.519Z,101408.16
2019-02-20T18:03:00.922Z,101400.93
2019-02-20T18:05:48.236Z,101408.72
2019-02-20T18:08:35.771Z,101410.03
2019-02-20T18:11:23.388Z,101410.98
2019-02-20T18:14:11.246Z,101408.70
2019-02-20T18:16:59.369Z,101416.48
2019-02-20T18:22:55.942Z,101416.98
2019-02-20T18:28:49.841Z,101420.83
2019-02-20T18:31:38.405Z,101427.77
2019-02-20T18:34:24.460Z,101425.62
2019-02-20T18:37:11.996Z,101426.47
2019-02-20T18:39:59.404Z,101433.68
2019-02-20T18:42:46.652Z,101430.31
2019-02-20T18:45:34.118Z,101440.09
2019-02-20T18:51:34.989Z,101428.05
2019-02-20T18:54:22.423Z,101433.86
2019-02-20T18:57:09.384Z,101429.60
2019-02-20T18:59:56.746Z,101438.07
2019-02-20T19:02:44.793Z,101436.05
2019-02-20T19:12:00.371Z,101444.70
2019-02-20T19:18:23.450Z,101445.83
2019-02-20T19:21:16.430Z,101449.41
2019-02-20T19:24:18.920Z,101450.34
2019-02-20T19:27:29.867Z,101449.58
2019-02-20T19:30:29.012Z,101448.79
2019-02-20T19:33:31.160Z,101457.64
2019-02-20T19:36:32.303Z,101456.34
2019-02-20T19:39:34.901Z,101453.30
2019-02-20T19:49:41.418Z,101457.95
2019-02-20T19:52:37.933Z,101458.41
2019-02-20T19:55:49.141Z,101462.81
2019-02-20T20:02:10.067Z,101462.09
2019-02-20T20:05:34.369Z,101457.61
2019-02-20T20:11:53.876Z,101458.11
2019-02-20T20:14:43.582Z,101455.22
2019-02-20T20:24:00.253Z,101462.00
2019-02-20T20:26:50.573Z,101460.70
2019-02-20T20:30:05.495Z,101460.13
2019-02-20T20:36:26.566Z,101459.26
2019-02-20T20:39:13.806Z,101459.75
2019-02-20T20:42:36.236Z,101460.73
2019-02-20T20:45:26.516Z,101456.00
2019-02-20T20:48:19.881Z,101456.50
2019-02-20T20:51:35.296Z,101452.95
2019-02-20T20:54:25.000Z,101458.09
2019-02-20T21:01:13.933Z,101453.69
2019-02-20T21:04:16.558Z,101448.76
2019-02-20T21:07:43.620Z,101454.08
2019-02-20T21:10:34.977Z,101451.01
2019-02-20T21:13:41.509Z,101452.56
2019-02-20T21:16:35.168Z,101448.80
2019-02-20T21:22:54.384Z,101455.03
2019-02-20T21:26:11.862Z,101456.30
2019-02-20T21:28:59.067Z,101452.30
2019-02-20T21:32:13.541Z,101447.83
2019-02-20T21:35:07.433Z,101450.55
2019-02-20T21:41:24.526Z,101452.81
2019-02-20T21:44:17.497Z,101451.89
2019-02-20T21:47:18.120Z,101457.14
2019-02-20T21:57:04.497Z,101448.08
2019-02-20T22:00:13.585Z,101453.55
2019-02-20T22:03:04.503Z,101461.20
2019-02-20T22:05:51.511Z,101455.67
2019-02-20T22:08:45.301Z,101457.55
2019-02-20T22:11:44.549Z,101455.09
2019-02-20T22:14:38.154Z,101457.46
2019-02-20T22:21:20.979Z,101452.11
2019-02-20T22:27:30.727Z,101453.27
2019-02-20T22:30:39.474Z,101450.34
2019-02-20T22:33:44.430Z,101451.77
2019-02-20T22:36:44.683Z,101454.05
2019-02-20T22:40:15.079Z,101458.53
2019-02-20T22:43:05.266Z,101452.93
2019-02-20T22:45:58.969Z,101454.74
2019-02-20T22:52:15.427Z,101458.36
2019-02-20T22:55:26.469Z,101455.77
2019-02-20T22:58:22.506Z,101459.34
2019-02-20T23:01:22.673Z,101458.92
2019-02-20T23:04:11.707Z,101461.09
2019-02-20T23:07:12.847Z,101456.28
2019-02-20T23:10:34.280Z,101456.08
2019-02-20T23:13:36.613Z,101464.24
2019-02-20T23:16:24.523Z,101467.70
2019-02-20T23:19:12.502Z,101474.02
2019-02-20T23:22:00.746Z,101477.66
2019-02-20T23:31:03.754Z,101483.77
2019-02-20T23:33:49.508Z,101486.10
2019-02-20T23:36:37.843Z,101493.27
2019-02-20T23:42:31.736Z,101495.88
2019-02-20T23:45:18.882Z,101497.92
2019-02-20T23:48:08.215Z,101494.19
2019-02-20T23:57:08.462Z,101503.20
2019-02-20T23:59:56.336Z,101505.42
